Time;durP1;ratioP1;P1;durP2;ratioP2;P2;SDS_P1;SDS_P2;PMS_P1;PMS_P2;Temp;Humidity;BMP_temperature;BMP_pressure;BME280_temperature;BME280_humidity;BME280_pressure;Samples;Min_cycle;Max_cycle;Signal;HPM_P1;HPM_P2
2024/02/04 00:04:04;;;;;;;;;;;;;;;6.94;90.33;99464.48;217381;1257;127394;-72
2024/02/04 00:09:14;;;;;;;;;;;;;;;6.91;89.89;99462.19;217186;1261;126859;-74
2024/02/04 00:14:20;;;;;;;;;;;;;;;6.86;89.94;99463.98;218272;1259;127275;-73
2024/02/04 00:19:26;;;;;;;;;;;;;;;6.83;90.15;99463.05;217132;1259;126860;-72
2024/02/04 00:24:31;;;;;;;;;;;;;;;6.80;89.82;99458.56;217333;1261;126347;-74
2024/02/04 00:29:35;;;;;;;;;;;;;;;6.80;90.11;99460.76;217453;1259;126091;-71
2024/02/04 00:34:40;;;;;;;;;;;;;;;6.81;89.99;99454.67;217294;1261;127313;-74
2024/02/04 00:39:45;;;;;;;;;;;;;;;6.83;90.18;99443.86;219833;1260;127376;-70
2024/02/04 00:44:49;;;;;;;;;;;;;;;6.81;89.70;99433.94;217591;1258;126142;-75
2024/02/04 00:50:26;;;;;;;;;;;;;;;6.78;89.86;99437.45;214983;1298;634374;-77
2024/02/04 00:55:30;;;;;;;;;;;;;;;6.69;89.80;99434.42;216070;1270;126595;-70
2024/02/04 01:00:34;;;;;;;;;;;;;;;6.58;89.44;99440.74;216226;1272;271548;-74
2024/02/04 01:05:38;;;;;;;;;;;;;;;6.46;89.22;99437.55;218098;1269;129637;-73
2024/02/04 01:10:44;;;;;;;;;;;;;;;6.38;88.84;99443.09;216712;1269;125385;-76
2024/02/04 01:20:45;;;;;;;3.70;2.00;;;;;;;6.35;89.14;99447.27;215017;1294;656975;-71
2024/02/04 01:25:50;;;;;;;4.80;2.00;;;;;;;6.31;88.49;99447.86;216572;1270;138792;-73
2024/02/04 01:30:54;;;;;;;6.60;2.40;;;;;;;6.24;88.36;99447.04;217005;1272;264659;-76
2024/02/04 01:36:00;;;;;;;2.40;1.90;;;;;;;6.14;87.98;99444.26;216556;1270;138724;-71
2024/02/04 01:41:04;;;;;;;5.80;2.50;;;;;;;6.06;88.21;99437.07;216458;1269;140984;-70
2024/02/04 01:46:10;;;;;;;1.80;1.30;;;;;;;5.98;87.70;99433.29;216287;1267;138893;-71
2024/02/04 01:51:21;;;;;;;7.30;1.80;;;;;;;5.91;87.98;99434.69;216714;1266;138926;-71
2024/02/04 01:56:26;;;;;;;3.70;2.10;;;;;;;5.85;87.65;99437.17;216110;1266;140857;-73
2024/02/04 02:01:32;;;;;;;7.10;4.00;;;;;;;5.78;87.49;99431.58;217771;1258;139549;-69
2024/02/04 02:06:41;;;;;;;4.50;1.60;;;;;;;5.72;87.46;99438.60;218545;1258;138811;-72
2024/02/04 02:11:57;;;;;;;4.00;1.50;;;;;;;5.66;87.38;99427.35;218532;1257;139620;-74
2024/02/04 02:17:07;;;;;;;4.60;2.10;;;;;;;5.63;87.26;99435.16;217677;1258;139091;-73
2024/02/04 02:22:24;;;;;;;3.00;2.10;;;;;;;5.61;87.60;99439.77;218092;1257;140673;-73
2024/02/04 02:27:28;;;;;;;3.30;1.90;;;;;;;5.55;87.13;99440.73;217669;1257;139772;-74
2024/02/04 02:32:33;;;;;;;6.50;2.20;;;;;;;5.50;86.97;99452.70;217745;1260;139835;-70
2024/02/04 02:37:47;;;;;;;2.40;2.10;;;;;;;5.44;87.11;99458.59;217656;1260;139402;-69
2024/02/04 02:42:55;;;;;;;6.30;1.30;;;;;;;5.41;87.35;99445.74;218093;1254;139060;-72
2024/02/04 02:48:01;;;;;;;2.00;1.30;;;;;;;5.40;87.16;99436.77;219874;1258;140109;-72
2024/02/04 02:53:06;;;;;;;3.50;1.30;;;;;;;5.35;86.95;99438.97;218192;1259;139322;-73
2024/02/04 02:58:10;;;;;;;2.60;1.10;;;;;;;5.33;87.10;99436.70;217618;1259;138919;-73
2024/02/04 03:03:15;;;;;;;6.20;2.00;;;;;;;5.28;86.82;99447.80;218247;1257;138969;-70
2024/02/04 03:08:25;;;;;;;5.60;1.50;;;;;;;5.22;86.94;99452.25;217283;1257;139479;-70
2024/02/04 03:13:31;;;;;;;4.90;2.30;;;;;;;5.16;86.81;99446.64;218062;1257;140891;-68
2024/02/04 03:18:39;;;;;;;3.90;1.60;;;;;;;5.09;86.67;99455.55;217728;1257;139079;-70
2024/02/04 03:23:56;;;;;;;4.50;1.40;;;;;;;4.99;86.37;99468.55;217638;1259;138892;-69
2024/02/04 03:29:04;;;;;;;6.50;2.00;;;;;;;4.91;85.91;99469.70;217665;1259;138916;-70
2024/02/04 03:34:09;;;;;;;2.70;2.30;;;;;;;4.80;85.80;99462.16;217530;1257;139074;-71
2024/02/04 03:39:14;;;;;;;7.50;1.50;;;;;;;4.72;85.88;99466.70;218110;1259;139859;-70
2024/02/04 03:44:19;;;;;;;10.00;1.60;;;;;;;4.68;85.85;99469.79;217521;1259;138670;-69
2024/02/04 03:49:24;;;;;;;8.70;1.90;;;;;;;4.62;85.82;99485.05;217425;1257;139785;-68
2024/02/04 03:54:29;;;;;;;6.30;2.20;;;;;;;4.55;86.12;99487.02;218165;1257;139705;-67
2024/02/04 03:59:34;;;;;;;9.00;1.50;;;;;;;4.49;85.87;99486.64;217368;1256;139223;-68
2024/02/04 04:04:47;;;;;;;9.20;2.10;;;;;;;4.42;85.90;99493.69;218598;1258;139270;-67
2024/02/04 04:09:54;;;;;;;4.40;1.10;;;;;;;4.37;85.83;99495.55;217521;1254;139176;-69
2024/02/04 04:14:58;;;;;;;3.40;1.40;;;;;;;4.36;86.07;99500.00;219889;1256;139793;-68
2024/02/04 04:20:06;;;;;;;5.30;1.80;;;;;;;4.38;86.19;99515.36;217190;1257;139800;-69
2024/02/04 04:25:10;;;;;;;1.80;1.70;;;;;;;4.40;86.07;99512.36;218832;1254;139912;-68
2024/02/04 04:30:15;;;;;;;6.30;1.30;;;;;;;4.38;86.09;99515.60;217323;1259;140584;-69
2024/02/04 04:35:19;;;;;;;5.30;2.00;;;;;;;4.34;86.04;99516.77;217365;1259;139181;-69
2024/02/04 04:40:24;;;;;;;4.00;2.20;;;;;;;4.31;86.12;99507.38;220256;1257;139613;-69
2024/02/04 04:45:28;;;;;;;3.40;1.10;;;;;;;4.27;85.94;99498.94;220441;1257;140252;-70
2024/02/04 04:50:33;;;;;;;5.70;1.30;;;;;;;4.23;85.94;99502.27;218684;1257;139438;-70
2024/02/04 04:55:37;;;;;;;5.40;1.20;;;;;;;4.20;85.78;99499.73;216850;1258;139325;-69
2024/02/04 05:00:42;;;;;;;5.90;1.60;;;;;;;4.16;85.94;99496.85;217124;1257;139941;-68
2024/02/04 05:05:46;;;;;;;3.50;1.60;;;;;;;4.14;86.10;99499.44;217467;1257;139313;-68
2024/02/04 05:10:51;;;;;;;5.80;2.00;;;;;;;4.11;85.93;99501.17;217292;1258;139846;-69
2024/02/04 05:15:55;;;;;;;7.90;1.50;;;;;;;4.12;86.34;99500.23;217146;1257;139114;-69
2024/02/04 05:21:02;;;;;;;3.30;3.00;;;;;;;4.17;86.60;99495.88;217031;1258;139917;-69
2024/02/04 05:26:07;;;;;;;7.80;1.60;;;;;;;4.21;86.74;99492.96;217519;1258;138963;-69
2024/02/04 05:31:11;;;;;;;8.40;2.00;;;;;;;4.23;86.76;99487.02;218171;1256;139266;-68
2024/02/04 05:36:16;;;;;;;4.20;2.10;;;;;;;4.22;86.66;99487.45;218648;1254;139664;-69
2024/02/04 05:41:20;;;;;;;4.40;2.30;;;;;;;4.22;86.84;99490.98;218070;1257;139122;-68
2024/02/04 05:46:27;;;;;;;6.20;2.30;;;;;;;4.23;86.71;99489.02;217242;1257;139017;-69
2024/02/04 05:51:37;;;;;;;5.20;1.40;;;;;;;4.26;86.79;99495.30;217464;1254;138979;-68
2024/02/04 05:56:43;;;;;;;4.10;1.40;;;;;;;4.30;86.62;99507.46;217966;1257;139343;-68
2024/02/04 06:01:47;;;;;;;2.20;1.00;;;;;;;4.33;86.61;99513.30;218154;1256;139335;-68
2024/02/04 06:06:52;;;;;;;6.00;2.10;;;;;;;4.34;86.73;99509.74;217525;1256;139732;-68
2024/02/04 06:11:56;;;;;;;6.50;3.10;;;;;;;4.35;86.83;99512.38;218492;1256;139279;-69
2024/02/04 06:17:01;;;;;;;5.30;1.60;;;;;;;4.36;86.71;99507.64;218386;1256;139661;-68
2024/02/04 06:22:06;;;;;;;3.40;1.20;;;;;;;4.36;86.60;99503.50;217457;1257;139889;-70
2024/02/04 06:27:11;;;;;;;5.50;2.30;;;;;;;4.36;86.66;99508.21;219354;1256;140873;-69
2024/02/04 06:32:16;;;;;;;7.80;2.60;;;;;;;4.35;86.64;99508.89;220232;1256;141068;-68
2024/02/04 06:37:20;;;;;;;6.70;2.00;;;;;;;4.34;86.16;99515.02;220295;1256;139382;-69
2024/02/04 06:42:24;;;;;;;5.00;2.00;;;;;;;4.35;86.41;99519.66;218956;1256;140125;-68
2024/02/04 06:47:29;;;;;;;4.30;2.60;;;;;;;4.42;86.50;99512.77;218687;1259;139101;-70
2024/02/04 06:52:34;;;;;;;7.80;2.50;;;;;;;4.51;86.34;99514.79;217178;1257;139354;-69
2024/02/04 06:57:40;;;;;;;6.60;2.60;;;;;;;4.57;86.19;99514.03;217516;1256;139672;-68
2024/02/04 07:02:44;;;;;;;4.90;1.30;;;;;;;4.58;86.17;99518.24;218178;1255;139149;-70
2024/02/04 07:07:52;;;;;;;6.70;1.70;;;;;;;4.59;85.84;99510.40;217441;1256;139668;-68
2024/02/04 07:12:56;;;;;;;6.80;1.90;;;;;;;4.58;85.43;99500.65;217194;1257;139176;-69
2024/02/04 07:18:02;;;;;;;5.40;1.80;;;;;;;4.58;85.21;99501.67;218099;1256;139455;-69
2024/02/04 07:23:06;;;;;;;6.60;2.20;;;;;;;4.63;84.91;99497.65;217514;1259;139923;-70
2024/02/04 07:28:11;;;;;;;3.00;1.40;;;;;;;4.70;85.22;99492.05;217270;1257;140183;-68
2024/02/04 07:33:16;;;;;;;5.70;2.50;;;;;;;4.80;84.88;99492.70;217981;1256;139392;-69
2024/02/04 07:38:21;;;;;;;9.00;1.90;;;;;;;4.84;84.46;99485.04;217294;1257;139128;-68
2024/02/04 07:43:25;;;;;;;7.70;1.90;;;;;;;4.90;84.71;99484.98;217693;1257;231439;-68
2024/02/04 07:48:30;;;;;;;3.20;1.50;;;;;;;4.93;84.59;99503.02;218634;1254;139724;-69
2024/02/04 07:53:48;;;;;;;7.00;2.70;;;;;;;4.95;84.31;99505.70;217187;1256;139679;-69
2024/02/04 07:58:52;;;;;;;5.20;1.80;;;;;;;5.01;84.15;99507.09;218281;1259;140762;-69
2024/02/04 08:04:00;;;;;;;9.50;2.10;;;;;;;5.04;83.73;99502.41;218506;1255;139613;-68
2024/02/04 08:09:06;;;;;;;5.20;1.70;;;;;;;5.05;83.55;99493.67;217649;1254;139642;-69
2024/02/04 08:14:11;;;;;;;2.60;1.50;;;;;;;5.07;83.63;99494.73;219146;1254;139108;-68
2024/02/04 08:19:16;;;;;;;7.40;2.40;;;;;;;5.09;83.93;99492.24;218239;1256;140519;-68
2024/02/04 08:24:21;;;;;;;3.50;1.20;;;;;;;5.14;83.82;99492.16;218217;1256;140981;-69
2024/02/04 08:29:25;;;;;;;7.10;1.50;;;;;;;5.18;83.57;99485.20;219831;1256;139187;-69
2024/02/04 08:34:30;;;;;;;5.30;2.00;;;;;;;5.29;83.49;99474.60;218994;1257;139898;-69
2024/02/04 08:39:35;;;;;;;8.50;1.50;;;;;;;5.42;83.47;99468.33;219499;1255;139728;-69
2024/02/04 08:44:41;;;;;;;7.20;2.40;;;;;;;5.53;83.60;99471.11;217067;1259;243880;-69
2024/02/04 08:49:45;;;;;;;6.20;2.20;;;;;;;5.62;83.33;99475.41;217422;1254;140408;-69
2024/02/04 08:54:52;;;;;;;4.00;1.10;;;;;;;5.65;83.42;99472.51;219295;1256;207625;-68
2024/02/04 08:59:57;;;;;;;5.90;1.60;;;;;;;5.66;83.24;99473.77;218079;1257;139548;-69
2024/02/04 09:05:02;;;;;;;2.10;1.80;;;;;;;5.69;83.16;99472.75;217240;1255;138856;-68
2024/02/04 09:10:07;;;;;;;6.60;1.90;;;;;;;5.73;83.23;99468.01;217318;1254;140099;-68
2024/02/04 09:15:11;;;;;;;8.70;2.90;;;;;;;5.78;83.15;99462.46;217180;1254;138894;-70
2024/02/04 09:20:15;;;;;;;3.30;1.30;;;;;;;5.80;82.96;99459.56;217208;1256;139942;-69
2024/02/04 09:25:19;;;;;;;3.30;1.60;;;;;;;5.78;83.17;99454.89;218100;1259;141150;-71
2024/02/04 09:30:24;;;;;;;9.80;3.00;;;;;;;5.73;82.91;99440.38;217296;1256;139292;-69
2024/02/04 09:35:28;;;;;;;6.60;2.50;;;;;;;5.70;82.83;99446.53;216942;1259;138823;-70
2024/02/04 09:40:34;;;;;;;9.60;3.50;;;;;;;5.70;82.68;99451.66;219058;1256;139871;-68
2024/02/04 09:45:39;;;;;;;16.00;3.10;;;;;;;5.71;83.23;99449.46;217210;1259;138802;-69
2024/02/04 09:50:44;;;;;;;7.20;5.60;;;;;;;5.61;83.52;99440.34;217326;1254;143107;-68
2024/02/04 09:55:50;;;;;;;8.90;2.90;;;;;;;5.51;83.88;99447.45;217117;1257;139722;-69
2024/02/04 10:00:56;;;;;;;9.40;3.90;;;;;;;5.50;84.27;99442.30;217165;1255;140115;-69
2024/02/04 10:06:00;;;;;;;4.80;2.40;;;;;;;5.52;84.37;99431.30;217159;1256;139656;-70
2024/02/04 10:11:04;;;;;;;4.50;2.30;;;;;;;5.54;84.59;99417.62;217692;1257;139267;-68
2024/02/04 10:16:09;;;;;;;4.10;1.80;;;;;;;5.55;84.59;99409.36;217462;1254;140444;-69
2024/02/04 10:21:18;;;;;;;5.00;3.20;;;;;;;5.59;84.32;99403.13;219176;1254;139498;-69
2024/02/04 10:26:30;;;;;;;7.70;3.90;;;;;;;5.62;84.40;99390.55;220255;1254;152457;-69
2024/02/04 10:31:34;;;;;;;7.40;2.10;;;;;;;5.64;84.37;99383.41;217423;1254;140388;-69
2024/02/04 10:36:39;;;;;;;5.30;2.30;;;;;;;5.65;84.14;99371.66;217344;1254;139750;-68
2024/02/04 10:41:51;;;;;;;7.40;2.10;;;;;;;5.66;84.20;99367.66;218172;1253;140476;-69
2024/02/04 10:46:58;;;;;;;7.70;3.60;;;;;;;5.75;84.22;99366.58;217534;1254;139357;-69
2024/02/04 10:52:07;;;;;;;4.00;1.90;;;;;;;5.84;84.06;99355.05;218403;1254;140604;-70
2024/02/04 10:57:16;;;;;;;6.90;3.30;;;;;;;5.88;83.80;99345.16;217579;1254;139381;-69
2024/02/04 11:02:24;;;;;;;3.80;2.60;;;;;;;5.96;83.40;99332.27;218571;1258;140950;-68
2024/02/04 11:07:32;;;;;;;4.10;2.10;;;;;;;6.01;83.43;99320.84;218158;1255;139075;-68
2024/02/04 11:12:38;;;;;;;40.70;3.30;;;;;;;6.05;83.19;99322.31;217074;1259;139810;-69
2024/02/04 11:17:42;;;;;;;8.20;2.20;;;;;;;6.06;83.29;99322.10;217334;1256;139501;-68
2024/02/04 11:23:21;;;;;;;4.70;2.30;;;;;;;6.04;82.78;99308.52;217225;1254;141798;-68
2024/02/04 11:28:26;;;;;;;5.50;2.70;;;;;;;6.04;82.67;99311.54;217100;1256;139471;-68
2024/02/04 11:33:31;;;;;;;8.50;2.40;;;;;;;6.05;82.46;99315.16;217144;1256;140119;-69
2024/02/04 11:38:37;;;;;;;5.50;2.30;;;;;;;6.05;82.44;99318.46;217314;1254;139546;-69
2024/02/04 11:43:41;;;;;;;2.40;1.80;;;;;;;6.06;82.25;99307.00;217228;1258;140543;-69
2024/02/04 11:48:55;;;;;;;7.80;2.30;;;;;;;6.10;82.27;99295.05;217239;1254;139232;-69
2024/02/04 11:54:02;;;;;;;4.50;2.00;;;;;;;6.12;82.26;99292.66;217118;1259;142557;-69
2024/02/04 11:59:07;;;;;;;6.40;2.70;;;;;;;6.12;82.27;99289.23;217021;1256;139789;-69
2024/02/04 12:04:16;;;;;;;7.00;2.30;;;;;;;6.08;81.82;99273.20;217208;1257;140040;-69
2024/02/04 12:09:22;;;;;;;6.30;2.20;;;;;;;6.13;81.67;99265.20;217187;1259;139452;-69
2024/02/04 12:14:27;;;;;;;8.20;3.10;;;;;;;6.17;81.65;99263.70;217095;1254;139376;-69
2024/02/04 12:19:31;;;;;;;6.60;2.90;;;;;;;6.18;81.41;99251.96;216939;1254;140319;-69
2024/02/04 12:24:38;;;;;;;10.90;3.80;;;;;;;6.22;81.84;99240.48;218986;1254;139610;-69
2024/02/04 12:29:44;;;;;;;6.40;2.20;;;;;;;6.24;81.47;99238.73;218634;1254;141768;-69
2024/02/04 12:34:51;;;;;;;7.30;2.70;;;;;;;6.26;81.24;99237.32;218116;1256;139275;-69
2024/02/04 12:39:56;;;;;;;4.80;2.60;;;;;;;6.29;81.07;99227.11;217381;1256;140747;-68
2024/02/04 12:45:00;;;;;;;3.80;1.90;;;;;;;6.34;80.69;99215.34;217634;1257;139510;-69
2024/02/04 12:50:07;;;;;;;4.90;3.20;;;;;;;6.37;80.58;99212.63;217494;1254;139382;-69
2024/02/04 12:55:24;;;;;;;4.10;2.00;;;;;;;6.42;80.37;99211.04;218662;1254;139268;-69
2024/02/04 13:00:28;;;;;;;1.60;1.40;;;;;;;6.44;80.41;99199.61;217001;1257;141736;-71
2024/02/04 13:05:32;;;;;;;4.50;2.20;;;;;;;6.44;80.12;99191.58;217440;1254;141235;-69
2024/02/04 13:10:37;;;;;;;5.40;1.60;;;;;;;6.45;79.94;99183.70;217259;1253;139712;-69
2024/02/04 13:15:43;;;;;;;4.40;2.10;;;;;;;6.44;79.99;99184.09;217163;1257;140243;-70
2024/02/04 13:20:48;;;;;;;3.40;1.50;;;;;;;6.42;79.59;99173.41;217328;1259;140221;-69
2024/02/04 13:25:53;;;;;;;11.80;2.40;;;;;;;6.42;79.51;99156.98;217100;1254;139383;-68
2024/02/04 13:30:57;;;;;;;3.20;1.70;;;;;;;6.42;79.29;99160.02;216425;1257;758584;-67
2024/02/04 13:36:01;;;;;;;3.90;1.80;;;;;;;6.44;79.17;99157.41;216933;1258;139910;-69
2024/02/04 13:41:07;;;;;;;2.90;2.00;;;;;;;6.45;79.27;99139.69;217195;1254;139452;-69
2024/02/04 13:46:11;;;;;;;4.60;2.30;;;;;;;6.45;78.73;99135.94;217344;1258;140117;-68
2024/02/04 13:51:16;;;;;;;11.60;4.60;;;;;;;6.45;78.92;99135.89;217702;1256;139691;-67
2024/02/04 13:56:38;;;;;;;5.20;3.00;;;;;;;6.44;78.61;99134.27;218320;1256;142895;-69
2024/02/04 14:01:43;;;;;;;2.50;1.90;;;;;;;6.44;78.67;99137.09;217950;1254;140005;-66
2024/02/04 14:06:47;;;;;;;5.40;2.50;;;;;;;6.45;78.94;99133.41;219737;1257;140451;-68
2024/02/04 14:11:54;;;;;;;4.50;2.30;;;;;;;6.46;78.64;99123.21;220097;1255;140621;-68
2024/02/04 14:16:57;;;;;;;9.30;1.70;;;;;;;6.48;78.46;99120.66;218184;1254;140337;-68
2024/02/04 14:22:01;;;;;;;5.20;1.80;;;;;;;6.49;78.57;99122.01;217321;1258;140195;-67
2024/02/04 14:27:05;;;;;;;8.00;3.40;;;;;;;6.48;78.50;99124.21;217468;1255;139658;-67
2024/02/04 14:32:09;;;;;;;5.20;1.90;;;;;;;6.47;78.26;99129.07;217170;1254;139608;-68
2024/02/04 14:37:17;;;;;;;8.10;2.60;;;;;;;6.46;78.19;99117.75;217416;1259;139381;-68
2024/02/04 14:42:21;;;;;;;3.90;2.00;;;;;;;6.44;78.42;99114.20;218693;1254;139936;-72
2024/02/04 14:47:29;;;;;;;3.90;2.70;;;;;;;6.44;78.35;99107.42;217647;1254;139796;-72
2024/02/04 14:52:33;;;;;;;7.80;2.30;;;;;;;6.42;77.97;99109.66;217728;1258;140094;-72
2024/02/04 14:57:36;;;;;;;2.90;1.70;;;;;;;6.41;78.05;99107.94;217570;1258;141423;-70
2024/02/04 15:02:40;;;;;;;3.10;1.70;;;;;;;6.38;78.04;99099.83;217330;1257;139200;-70
2024/02/04 15:07:46;;;;;;;8.90;3.30;;;;;;;6.34;78.13;99090.67;217331;1259;139441;-70
2024/02/04 15:12:53;;;;;;;5.00;2.30;;;;;;;6.31;78.16;99092.63;217432;1256;140549;-70
2024/02/04 15:17:57;;;;;;;5.00;2.30;;;;;;;6.29;78.20;99089.73;217210;1258;139045;-69
2024/02/04 15:23:02;;;;;;;7.10;3.10;;;;;;;6.28;77.97;99085.09;217134;1254;140155;-70
2024/02/04 15:28:11;;;;;;;3.50;2.20;;;;;;;6.27;78.64;99083.10;217459;1257;139372;-69
2024/02/04 15:33:17;;;;;;;5.90;3.20;;;;;;;6.26;78.31;99079.77;218617;1257;139715;-71
2024/02/04 15:38:21;;;;;;;6.80;2.50;;;;;;;6.22;78.52;99078.77;218814;1258;141268;-70
2024/02/04 15:43:25;;;;;;;6.10;2.60;;;;;;;6.20;78.22;99071.95;218148;1258;139211;-72
2024/02/04 15:48:38;;;;;;;1.70;1.50;;;;;;;6.18;78.58;99061.87;217548;1254;140594;-72
2024/02/04 15:53:57;;;;;;;4.90;2.20;;;;;;;6.17;78.83;99065.71;217727;1259;140242;-71
2024/02/04 15:59:11;;;;;;;5.10;1.80;;;;;;;6.18;78.61;99063.79;218275;1257;140981;-72
2024/02/04 16:04:17;;;;;;;6.50;2.80;;;;;;;6.17;78.73;99063.23;217505;1255;141052;-73
2024/02/04 16:09:22;;;;;;;2.20;2.00;;;;;;;6.14;78.03;99054.67;217761;1257;138975;-68
2024/02/04 16:14:33;;;;;;;2.20;1.40;;;;;;;6.13;78.32;99058.07;218456;1258;141302;-69
2024/02/04 16:19:38;;;;;;;5.60;2.20;;;;;;;6.14;77.90;99066.77;218245;1256;139750;-72
2024/02/04 16:26:45;;;;;;;7.40;2.50;;;;;;;6.17;77.96;99066.40;214433;1302;656663;-69
2024/02/04 16:31:48;;;;;;;2.10;1.90;;;;;;;6.16;77.83;99064.98;215003;1275;138884;-70
2024/02/04 16:36:53;;;;;;;5.90;2.60;;;;;;;6.17;77.64;99067.83;215115;1275;257323;-70
2024/02/04 16:41:57;;;;;;;4.50;2.30;;;;;;;6.16;77.83;99073.30;215734;1270;139278;-69
2024/02/04 16:47:02;;;;;;;8.20;2.00;;;;;;;6.16;77.87;99073.09;215314;1272;139672;-69
2024/02/04 16:52:06;;;;;;;6.00;1.90;;;;;;;6.17;77.52;99070.63;215365;1272;139334;-71
2024/02/04 16:57:12;;;;;;;8.10;3.40;;;;;;;6.17;77.37;99067.39;215282;1272;138380;-71
2024/02/04 17:02:21;;;;;;;4.50;2.10;;;;;;;6.14;77.52;99069.08;215182;1270;138990;-71
2024/02/04 17:07:27;;;;;;;7.30;2.50;;;;;;;6.14;77.65;99062.29;216824;1260;140575;-70
2024/02/04 17:12:32;;;;;;;9.00;2.80;;;;;;;6.13;77.60;99061.89;216580;1257;139429;-70
2024/02/04 17:17:37;;;;;;;4.60;2.50;;;;;;;6.12;78.15;99059.06;218072;1260;140126;-70
2024/02/04 17:22:44;;;;;;;5.50;2.30;;;;;;;6.11;77.74;99057.02;217529;1257;139591;-70
2024/02/04 17:27:51;;;;;;;6.60;1.70;;;;;;;6.10;77.40;99061.30;216661;1261;138956;-70
2024/02/04 17:32:55;;;;;;;;;;;;;;;6.10;77.62;99058.01;219082;1260;138728;-72
2024/02/04 17:38:03;;;;;;;4.50;2.00;;;;;;;6.05;77.58;99056.52;219416;1258;126188;-72
2024/02/04 17:43:10;;;;;;;7.40;1.90;;;;;;;6.08;77.51;99051.67;216312;1258;138911;-72
2024/02/04 17:48:14;;;;;;;9.40;2.60;;;;;;;6.09;77.27;99044.76;217761;1257;139305;-73
2024/02/04 17:53:19;;;;;;;3.50;2.90;;;;;;;6.08;77.42;99045.33;216872;1257;220385;-71
2024/02/04 17:58:24;;;;;;;4.00;2.40;;;;;;;6.08;76.74;99044.89;217616;1262;140639;-72
2024/02/04 18:03:29;;;;;;;9.10;3.10;;;;;;;6.07;76.89;99043.22;216625;1258;139160;-73
2024/02/04 18:08:38;;;;;;;5.50;2.50;;;;;;;6.07;76.76;99035.57;216775;1262;138909;-71
2024/02/04 18:13:42;;;;;;;3.20;1.50;;;;;;;6.06;76.83;99038.27;217525;1261;139769;-71
2024/02/04 18:18:46;;;;;;;9.80;2.70;;;;;;;6.05;76.88;99037.71;216500;1261;139634;-70
2024/02/04 18:23:52;;;;;;;3.30;2.00;;;;;;;6.01;77.22;99031.73;218136;1257;139666;-71
2024/02/04 18:28:56;;;;;;;5.80;2.10;;;;;;;6.00;76.84;99029.99;216839;1257;139431;-70
2024/02/04 18:34:03;;;;;;;3.70;2.20;;;;;;;5.99;76.94;99027.96;217089;1259;139690;-71
2024/02/04 18:39:07;;;;;;;6.30;2.80;;;;;;;5.96;77.10;99018.77;218054;1257;139168;-70
2024/02/04 18:44:15;;;;;;;6.00;2.60;;;;;;;5.95;77.18;99010.87;216422;1258;139693;-70
2024/02/04 18:49:19;;;;;;;6.30;2.40;;;;;;;5.93;77.03;99014.20;216429;1260;139042;-71
2024/02/04 18:54:24;;;;;;;4.20;2.20;;;;;;;5.93;77.14;99017.09;216438;1261;139458;-71
2024/02/04 18:59:29;;;;;;;5.70;2.50;;;;;;;5.92;77.26;99018.72;216919;1260;139766;-71
2024/02/04 19:04:32;;;;;;;8.30;3.90;;;;;;;5.90;77.37;99010.61;217250;1260;139054;-72
2024/02/04 19:09:37;;;;;;;4.00;1.70;;;;;;;5.89;77.06;98998.23;217241;1258;139401;-71
2024/02/04 19:14:47;;;;;;;8.90;3.00;;;;;;;5.89;77.23;98995.59;216632;1260;139065;-70
2024/02/04 19:19:55;;;;;;;6.20;2.40;;;;;;;5.87;77.15;99000.20;216503;1258;139722;-70
2024/02/04 19:24:59;;;;;;;8.00;2.40;;;;;;;5.87;77.09;99002.19;217261;1258;139739;-70
2024/02/04 19:30:04;;;;;;;10.40;2.90;;;;;;;5.86;77.29;98998.08;216965;1260;139944;-72
2024/02/04 19:35:08;;;;;;;3.50;1.60;;;;;;;5.86;77.27;98996.30;218142;1257;140083;-69
2024/02/04 19:40:15;;;;;;;6.40;2.00;;;;;;;5.85;77.46;98989.97;217156;1257;139602;-71
2024/02/04 19:45:19;;;;;;;4.50;1.90;;;;;;;5.85;77.26;98985.61;216902;1262;139118;-67
2024/02/04 19:50:23;;;;;;;5.10;2.40;;;;;;;5.86;77.27;98979.45;216823;1262;158489;-67
2024/02/04 19:55:31;;;;;;;3.90;1.40;;;;;;;5.85;77.48;98972.41;216597;1257;140781;-70
2024/02/04 20:00:35;;;;;;;7.90;2.80;;;;;;;5.84;77.37;98980.94;216987;1257;140572;-69
2024/02/04 20:05:39;;;;;;;3.60;2.00;;;;;;;5.83;77.67;98977.41;217157;1257;141238;-69
2024/02/04 20:10:43;;;;;;;8.60;2.70;;;;;;;5.82;77.61;98976.82;217178;1257;139728;-70
2024/02/04 20:15:47;;;;;;;7.10;1.60;;;;;;;5.83;77.23;98980.91;217026;1258;140513;-70
2024/02/04 20:20:53;;;;;;;6.50;2.20;;;;;;;5.84;77.58;98978.86;217251;1257;139624;-70
2024/02/04 20:26:01;;;;;;;10.60;3.10;;;;;;;5.85;77.60;98967.79;218313;1257;139523;-72
2024/02/04 20:31:06;;;;;;;5.10;3.20;;;;;;;5.85;77.88;98968.85;217006;1257;139091;-71
2024/02/04 20:36:11;;;;;;;9.10;4.90;;;;;;;5.84;78.22;98959.04;217418;1259;140047;-70
2024/02/04 20:41:16;;;;;;;7.90;3.00;;;;;;;5.84;77.83;98963.45;217102;1262;139778;-72
2024/02/04 20:46:21;;;;;;;8.80;2.70;;;;;;;5.83;78.36;98949.19;216921;1260;141179;-73
2024/02/04 20:51:25;;;;;;;2.50;1.90;;;;;;;5.80;78.06;98951.80;217183;1258;140337;-69
2024/02/04 20:56:30;;;;;;;7.20;2.60;;;;;;;5.78;78.37;98948.86;218078;1257;140196;-69
2024/02/04 21:01:35;;;;;;;5.70;2.40;;;;;;;5.79;78.67;98934.40;217945;1257;140783;-69
2024/02/04 21:06:39;;;;;;;3.80;2.60;;;;;;;5.81;78.34;98938.14;217076;1257;139564;-71
2024/02/04 21:11:44;;;;;;;9.30;3.20;;;;;;;5.84;78.51;98928.77;218596;1257;139655;-72
2024/02/04 21:16:49;;;;;;;5.90;2.70;;;;;;;5.87;78.35;98932.20;218647;1258;140854;-67
2024/02/04 21:21:53;;;;;;;3.90;2.10;;;;;;;5.89;78.07;98920.44;218003;1262;139795;-71
2024/02/04 21:26:57;;;;;;;6.50;2.70;;;;;;;5.90;78.36;98921.89;217055;1258;138785;-72
2024/02/04 21:32:01;;;;;;;7.00;2.80;;;;;;;5.89;78.58;98913.31;216939;1262;139002;-73
2024/02/04 21:37:05;;;;;;;7.30;3.80;;;;;;;5.90;77.97;98901.95;217098;1260;140344;-69
2024/02/04 21:42:09;;;;;;;6.40;2.80;;;;;;;5.92;78.11;98905.92;218299;1262;140382;-73
2024/02/04 21:47:18;;;;;;;7.90;2.80;;;;;;;5.92;78.32;98895.66;216927;1261;139090;-73
2024/02/04 21:52:23;;;;;;;8.60;3.70;;;;;;;5.91;78.63;98897.59;217469;1260;139084;-70
2024/02/04 21:57:27;;;;;;;5.90;2.10;;;;;;;5.91;78.24;98896.05;219337;1261;140086;-73
2024/02/04 22:02:31;;;;;;;4.50;2.30;;;;;;;5.93;78.44;98893.62;217176;1257;139783;-72
2024/02/04 22:07:35;;;;;;;7.60;2.00;;;;;;;5.93;78.33;98886.38;218348;1257;139120;-72
2024/02/04 22:12:39;;;;;;;8.30;2.60;;;;;;;5.92;78.35;98893.23;217006;1258;139154;-75
2024/02/04 22:17:45;;;;;;;4.10;3.10;;;;;;;5.88;78.66;98889.14;218084;1257;139763;-70
2024/02/04 22:22:50;;;;;;;7.00;2.70;;;;;;;5.84;78.88;98900.38;217138;1261;140443;-71
2024/02/04 22:27:54;;;;;;;4.70;2.40;;;;;;;5.79;79.47;98896.68;218875;1261;139357;-70
2024/02/04 22:32:58;;;;;;;9.60;2.50;;;;;;;5.73;79.59;98891.86;218498;1260;139309;-71
2024/02/04 22:38:04;;;;;;;3.10;2.00;;;;;;;5.69;79.69;98893.52;216869;1261;140989;-70
2024/02/04 22:43:08;;;;;;;4.40;2.80;;;;;;;5.67;80.17;98878.85;218555;1259;139517;-71
2024/02/04 22:48:14;;;;;;;4.10;2.30;;;;;;;5.64;80.31;98873.06;217371;1261;138929;-70
2024/02/04 22:53:18;;;;;;;7.40;3.40;;;;;;;5.63;80.38;98876.41;217037;1258;138836;-70
2024/02/04 22:58:27;;;;;;;4.40;2.30;;;;;;;5.60;80.80;98870.83;217052;1257;139356;-70
2024/02/04 23:03:31;;;;;;;12.10;5.20;;;;;;;5.57;80.77;98876.61;216890;1257;139807;-70
2024/02/04 23:08:36;;;;;;;3.50;2.20;;;;;;;5.55;81.19;98872.00;217176;1257;140162;-70
2024/02/04 23:13:41;;;;;;;3.90;1.90;;;;;;;5.53;81.31;98864.45;217354;1258;139790;-71
2024/02/04 23:18:46;;;;;;;3.50;2.40;;;;;;;5.53;81.36;98868.04;217503;1262;140749;-70
2024/02/04 23:23:50;;;;;;;3.10;2.80;;;;;;;5.51;81.80;98870.16;217368;1258;138852;-70
2024/02/04 23:28:55;;;;;;;3.50;2.50;;;;;;;5.48;82.06;98858.61;217108;1262;141384;-70
2024/02/04 23:33:59;;;;;;;4.00;2.00;;;;;;;5.45;82.12;98853.61;216962;1257;140323;-71
2024/02/04 23:39:06;;;;;;;4.20;2.40;;;;;;;5.44;82.27;98841.86;216959;1258;139466;-71
2024/02/04 23:44:11;;;;;;;;;;;;;;;5.42;82.82;98841.00;218741;1259;140063;-72
2024/02/04 23:49:16;;;;;;;2.20;1.90;;;;;;;5.36;82.86;98831.22;219071;1261;125469;-71
2024/02/04 23:54:20;;;;;;;5.80;2.60;;;;;;;5.34;83.08;98822.66;217059;1257;139008;-69
2024/02/04 23:59:24;;;;;;;4.20;2.30;;;;;;;5.35;83.28;98824.16;217842;1257;138953;-71
